createdAt,value
2018-04-22T00:01:04.331Z,23.53
2018-04-22T00:03:34.962Z,23.20
2018-04-22T00:06:05.690Z,22.07
2018-04-22T00:08:36.184Z,25.03
2018-04-22T00:11:07.330Z,20.70
2018-04-22T00:13:37.213Z,21.70
2018-04-22T00:16:07.090Z,19.27
2018-04-22T00:18:37.715Z,18.20
2018-04-22T00:21:09.364Z,29.23
2018-04-22T00:23:39.932Z,21.20
2018-04-22T00:26:10.186Z,26.23
2018-04-22T00:28:40.041Z,35.83
2018-04-22T00:31:10.689Z,21.00
2018-04-22T00:33:40.405Z,21.37
2018-04-22T00:36:10.150Z,19.30
2018-04-22T00:38:39.906Z,20.43
2018-04-22T00:41:10.447Z,16.80
2018-04-22T00:43:40.296Z,16.90
2018-04-22T00:46:10.042Z,17.70
2018-04-22T00:48:41.440Z,25.00
2018-04-22T00:51:11.211Z,20.20
2018-04-22T00:53:52.833Z,20.93
2018-04-22T00:56:22.617Z,19.03
2018-04-22T00:58:53.108Z,22.40
2018-04-22T01:01:22.794Z,20.43
2018-04-22T01:03:52.537Z,19.10
2018-04-22T01:06:22.381Z,25.73
2018-04-22T01:08:52.987Z,32.63
2018-04-22T01:11:22.830Z,36.33
2018-04-22T01:13:52.678Z,21.20
2018-04-22T01:16:22.568Z,24.17
2018-04-22T01:18:52.338Z,26.87
2018-04-22T01:21:22.181Z,23.20
2018-04-22T01:23:52.300Z,20.37
2018-04-22T01:26:22.130Z,35.43
2018-04-22T01:28:51.962Z,29.57
2018-04-22T01:31:21.717Z,21.90
2018-04-22T01:33:52.333Z,37.17
2018-04-22T01:36:22.036Z,25.87
2018-04-22T01:38:51.817Z,26.87
2018-04-22T01:41:21.652Z,31.07
2018-04-22T01:43:51.394Z,32.60
2018-04-22T01:46:21.840Z,35.57
2018-04-22T01:48:52.362Z,25.87
2018-04-22T01:51:22.835Z,30.23
2018-04-22T01:53:53.181Z,40.63
2018-04-22T01:56:23.013Z,34.93
2018-04-22T01:58:53.469Z,25.20
2018-04-22T02:01:23.350Z,32.90
2018-04-22T02:03:54.017Z,32.50
2018-04-22T02:06:23.886Z,34.30
2018-04-22T02:08:53.632Z,34.60
2018-04-22T02:11:25.470Z,30.53
2018-04-22T02:13:56.019Z,35.30
2018-04-22T02:16:25.759Z,30.40
2018-04-22T02:18:55.663Z,39.90
2018-04-22T02:21:25.431Z,33.00
2018-04-22T02:23:55.162Z,54.33
2018-04-22T02:26:25.793Z,36.07
2018-04-22T02:28:55.673Z,33.43
2018-04-22T02:31:25.885Z,28.93
2018-04-22T02:33:56.395Z,27.63
2018-04-22T02:36:26.374Z,30.50
2018-04-22T02:38:56.216Z,34.00
2018-04-22T02:41:26.095Z,33.27
2018-04-22T02:43:56.603Z,27.50
2018-04-22T02:46:27.215Z,25.30
2018-04-22T02:48:56.925Z,33.23
2018-04-22T02:51:26.909Z,27.37
2018-04-22T02:53:56.658Z,33.27
2018-04-22T02:56:27.378Z,33.27
2018-04-22T02:58:57.065Z,30.60
2018-04-22T03:01:26.939Z,32.93
2018-04-22T03:03:57.613Z,30.07
2018-04-22T03:06:27.347Z,35.50
2018-04-22T03:08:58.834Z,29.87
2018-04-22T03:11:30.464Z,28.30
2018-04-22T03:14:00.338Z,30.77
2018-04-22T03:16:30.202Z,26.77
2018-04-22T03:19:00.869Z,28.43
2018-04-22T03:21:30.697Z,35.70
2018-04-22T03:24:00.521Z,30.53
2018-04-22T03:26:30.400Z,34.13
2018-04-22T03:29:00.300Z,26.00
2018-04-22T03:31:31.300Z,29.60
2018-04-22T03:34:01.215Z,39.00
2018-04-22T03:36:30.929Z,24.97
2018-04-22T03:39:00.694Z,26.67
2018-04-22T03:41:30.698Z,34.43
2018-04-22T03:44:00.489Z,26.37
2018-04-22T03:46:31.351Z,24.00
2018-04-22T03:49:01.175Z,30.00
2018-04-22T03:51:31.033Z,31.73
2018-04-22T03:54:00.950Z,34.67
2018-04-22T03:56:31.581Z,23.60
2018-04-22T03:59:01.366Z,33.90
2018-04-22T04:01:31.221Z,32.10
2018-04-22T04:04:01.362Z,25.27
2018-04-22T04:06:31.283Z,25.67
2018-04-22T04:09:01.317Z,26.43
2018-04-22T04:11:31.090Z,28.33
2018-04-22T04:14:03.219Z,32.23
2018-04-22T04:16:32.934Z,28.30
2018-04-22T04:19:13.964Z,31.57
2018-04-22T04:21:54.774Z,39.63
2018-04-22T04:24:35.457Z,29.33
2018-04-22T04:30:08.956Z,33.80
2018-04-22T04:32:39.505Z,32.23
2018-04-22T04:35:09.358Z,31.97
2018-04-22T04:37:39.313Z,27.73
2018-04-22T04:40:09.177Z,30.40
2018-04-22T04:42:39.810Z,23.10
2018-04-22T04:45:12.139Z,28.03
2018-04-22T04:47:41.995Z,26.70
2018-04-22T04:50:12.645Z,23.80
2018-04-22T04:52:43.244Z,25.70
2018-04-22T04:55:13.894Z,28.03
2018-04-22T04:57:43.772Z,25.73
2018-04-22T05:00:13.754Z,26.50
2018-04-22T05:02:43.737Z,25.50
2018-04-22T05:05:14.225Z,25.80
2018-04-22T05:07:44.185Z,24.90
2018-04-22T05:10:14.816Z,27.30
2018-04-22T05:12:45.510Z,24.37
2018-04-22T05:15:15.779Z,24.83
2018-04-22T05:17:45.525Z,24.90
2018-04-22T05:20:15.235Z,23.07
2018-04-22T05:22:45.109Z,27.23
2018-04-22T05:25:14.872Z,23.40
2018-04-22T05:27:44.622Z,25.83
2018-04-22T05:30:14.604Z,25.93
2018-04-22T05:32:44.671Z,26.17
2018-04-22T05:35:14.601Z,24.60
2018-04-22T05:37:44.612Z,26.07
2018-04-22T05:40:14.502Z,23.37
2018-04-22T05:42:45.188Z,28.33
2018-04-22T05:45:15.016Z,25.90
2018-04-22T05:47:44.913Z,26.00
2018-04-22T05:50:14.868Z,34.83
2018-04-22T05:52:45.410Z,26.23
2018-04-22T05:55:15.422Z,26.17
2018-04-22T05:57:45.992Z,30.17
2018-04-22T06:00:15.769Z,27.03
2018-04-22T06:02:45.599Z,27.43
2018-04-22T06:05:15.320Z,27.73
2018-04-22T06:07:45.063Z,29.77
2018-04-22T06:10:15.219Z,31.70
2018-04-22T06:12:45.009Z,32.13
2018-04-22T06:15:15.560Z,28.67
2018-04-22T06:17:45.480Z,29.80
2018-04-22T06:20:15.351Z,31.50
2018-04-22T06:22:45.272Z,34.40
2018-04-22T06:25:15.217Z,32.07
2018-04-22T06:27:45.691Z,30.67
2018-04-22T06:30:15.451Z,29.97
2018-04-22T06:32:45.993Z,29.77
2018-04-22T06:35:16.087Z,31.97
2018-04-22T06:37:46.763Z,38.97
2018-04-22T06:40:17.844Z,26.73
2018-04-22T06:42:47.791Z,28.20
2018-04-22T06:45:17.562Z,26.87
2018-04-22T06:47:47.427Z,26.57
2018-04-22T06:50:17.355Z,28.53
2018-04-22T06:52:47.126Z,26.40
2018-04-22T06:55:17.982Z,24.77
2018-04-22T06:57:47.923Z,24.63
2018-04-22T07:00:17.892Z,28.17
2018-04-22T07:02:48.410Z,25.93
2018-04-22T07:05:18.186Z,25.63
2018-04-22T07:07:48.127Z,27.03
2018-04-22T07:10:17.855Z,31.13
2018-04-22T07:12:47.891Z,26.77
2018-04-22T07:15:19.017Z,29.17
2018-04-22T07:17:49.551Z,27.70
2018-04-22T07:20:20.912Z,29.87
2018-04-22T07:22:50.704Z,30.07
2018-04-22T07:25:21.235Z,29.70
2018-04-22T07:27:52.026Z,29.63
2018-04-22T07:30:21.956Z,28.67
2018-04-22T07:32:52.081Z,28.10
2018-04-22T07:35:21.843Z,28.13
2018-04-22T07:37:51.617Z,27.80
2018-04-22T07:40:21.504Z,29.97
2018-04-22T07:42:51.575Z,25.90
2018-04-22T07:45:21.421Z,28.57
2018-04-22T07:47:51.322Z,26.53
2018-04-22T07:50:21.080Z,26.33
2018-04-22T07:52:50.834Z,26.13
2018-04-22T07:55:20.615Z,30.83
2018-04-22T07:57:51.316Z,31.23
2018-04-22T08:00:21.416Z,26.50
2018-04-22T08:02:51.314Z,26.40
2018-04-22T08:05:21.097Z,24.57
2018-04-22T08:07:52.098Z,28.03
2018-04-22T08:10:21.962Z,23.93
2018-04-22T08:12:52.849Z,22.40
2018-04-22T08:15:22.790Z,22.50
2018-04-22T08:17:52.548Z,23.40
2018-04-22T08:20:22.444Z,22.83
2018-04-22T08:22:52.347Z,23.93
2018-04-22T08:25:23.345Z,25.13
2018-04-22T08:27:53.278Z,23.00
2018-04-22T08:30:23.045Z,24.20
2018-04-22T08:32:52.923Z,19.93
2018-04-22T08:35:23.424Z,19.50
2018-04-22T08:37:53.340Z,21.67
2018-04-22T08:40:23.238Z,24.27
2018-04-22T08:42:53.046Z,23.47
2018-04-22T08:45:22.824Z,22.30
2018-04-22T08:47:52.832Z,19.63
2018-04-22T08:50:23.369Z,19.53
2018-04-22T08:52:53.348Z,20.60
2018-04-22T08:55:23.264Z,24.80
2018-04-22T08:57:53.139Z,19.63
2018-04-22T09:00:22.986Z,24.10
2018-04-22T09:02:53.369Z,29.90
2018-04-22T09:05:23.108Z,26.30
2018-04-22T09:07:52.864Z,21.40
2018-04-22T09:10:22.942Z,17.47
2018-04-22T09:12:52.710Z,20.07
2018-04-22T09:15:22.599Z,18.40
2018-04-22T09:17:53.338Z,21.10
2018-04-22T09:20:23.061Z,18.80
2018-04-22T09:22:52.836Z,18.40
2018-04-22T09:25:23.508Z,15.17
2018-04-22T09:27:53.356Z,17.63
2018-04-22T09:30:23.084Z,17.30
2018-04-22T09:32:52.951Z,20.00
2018-04-22T09:35:23.764Z,14.20
2018-04-22T09:37:53.536Z,17.30
2018-04-22T09:40:23.586Z,17.10
2018-04-22T09:42:54.114Z,18.00
2018-04-22T09:45:25.339Z,18.47
2018-04-22T09:47:55.241Z,17.97
2018-04-22T09:50:25.081Z,16.47
2018-04-22T09:52:55.637Z,16.93
2018-04-22T09:55:25.552Z,17.40
2018-04-22T09:57:55.456Z,17.37
2018-04-22T10:00:30.485Z,20.03
2018-04-22T10:03:01.217Z,30.83
2018-04-22T10:05:36.986Z,24.03
2018-04-22T10:08:06.781Z,48.03
2018-04-22T10:10:37.522Z,34.80
2018-04-22T10:13:07.446Z,22.10
2018-04-22T10:15:37.384Z,28.20
2018-04-22T10:18:07.316Z,20.60
2018-04-22T10:20:37.423Z,26.10
2018-04-22T10:23:07.405Z,20.70
2018-04-22T10:25:38.090Z,18.90
2018-04-22T10:28:08.187Z,19.50
2018-04-22T10:30:37.937Z,18.60
2018-04-22T10:33:07.843Z,21.77
2018-04-22T10:38:12.752Z,18.87
2018-04-22T10:40:44.586Z,16.50
2018-04-22T10:43:14.317Z,16.83
2018-04-22T10:45:44.306Z,19.03
2018-04-22T10:48:14.833Z,23.13
2018-04-22T10:50:45.385Z,17.90
2018-04-22T10:53:15.261Z,23.73
2018-04-22T10:55:45.074Z,22.70
2018-04-22T10:58:15.597Z,26.73
2018-04-22T11:00:45.505Z,29.33
2018-04-22T11:03:15.226Z,39.77
2018-04-22T11:05:45.734Z,39.50
2018-04-22T11:08:15.510Z,31.80
2018-04-22T11:10:45.281Z,34.13
2018-04-22T11:13:15.848Z,31.60
2018-04-22T11:15:45.612Z,34.30
2018-04-22T11:18:16.425Z,22.23
2018-04-22T11:20:46.367Z,28.00
2018-04-22T11:23:16.903Z,28.37
2018-04-22T11:25:48.665Z,28.80
2018-04-22T11:28:19.303Z,28.93
2018-04-22T11:30:49.894Z,23.60
2018-04-22T11:33:20.591Z,22.83
2018-04-22T11:35:50.495Z,23.97
2018-04-22T11:38:20.241Z,31.23
2018-04-22T11:40:50.148Z,24.60
2018-04-22T11:43:20.839Z,18.60
2018-04-22T11:45:51.353Z,21.67
2018-04-22T11:48:21.857Z,18.00
2018-04-22T11:50:52.583Z,16.53
2018-04-22T11:53:22.357Z,18.70
2018-04-22T11:55:52.106Z,17.67
2018-04-22T11:58:21.885Z,22.03
2018-04-22T12:00:51.873Z,21.60
2018-04-22T12:03:23.191Z,18.37
2018-04-22T12:05:53.128Z,21.27
2018-04-22T12:08:24.796Z,18.10
2018-04-22T12:10:56.479Z,18.55
2018-04-22T12:13:26.694Z,13.80
2018-04-22T12:15:56.639Z,14.20
2018-04-22T12:18:26.415Z,12.90
2018-04-22T12:20:57.125Z,17.10
2018-04-22T12:23:27.668Z,13.40
2018-04-22T12:25:57.443Z,11.80
2018-04-22T12:28:27.382Z,13.83
2018-04-22T12:30:58.162Z,16.03
2018-04-22T12:33:28.094Z,11.60
2018-04-22T12:35:57.916Z,16.00
2018-04-22T12:38:27.691Z,15.00
2018-04-22T12:40:58.389Z,17.55
2018-04-22T12:43:29.072Z,13.88
2018-04-22T12:45:59.033Z,18.55
2018-04-22T12:48:29.667Z,21.50
2018-04-22T12:51:00.263Z,15.02
2018-04-22T12:53:30.239Z,15.40
2018-04-22T12:56:01.001Z,17.00
2018-04-22T12:58:30.803Z,16.53
2018-04-22T13:01:00.784Z,14.77
2018-04-22T13:03:31.676Z,17.43
2018-04-22T13:06:01.877Z,14.80
2018-04-22T13:08:31.893Z,15.07
2018-04-22T13:11:01.726Z,17.17
2018-04-22T13:13:31.667Z,13.70
2018-04-22T13:16:02.281Z,13.63
2018-04-22T13:18:32.098Z,21.13
2018-04-22T13:21:01.898Z,19.17
2018-04-22T13:23:31.863Z,19.53
2018-04-22T13:26:01.711Z,21.40
2018-04-22T13:28:31.620Z,32.53
2018-04-22T13:31:01.552Z,17.50
2018-04-22T13:33:31.587Z,18.23
2018-04-22T13:36:03.192Z,20.07
2018-04-22T13:38:33.094Z,18.90
2018-04-22T13:41:02.893Z,23.97
2018-04-22T13:43:33.586Z,17.30
2018-04-22T13:46:03.520Z,19.53
2018-04-22T13:48:33.294Z,23.57
2018-04-22T13:51:03.221Z,26.03
2018-04-22T13:53:33.291Z,36.53
2018-04-22T13:56:03.894Z,17.40
2018-04-22T13:58:33.861Z,22.13
2018-04-22T14:01:04.555Z,19.57
2018-04-22T14:03:35.236Z,26.00
2018-04-22T14:06:05.547Z,18.63
2018-04-22T14:08:35.345Z,23.43
2018-04-22T14:11:06.333Z,18.80
2018-04-22T14:13:36.099Z,20.80
2018-04-22T14:16:06.306Z,21.70
2018-04-22T14:18:36.904Z,23.87
2018-04-22T14:21:06.755Z,20.93
2018-04-22T14:23:36.530Z,19.03
2018-04-22T14:26:06.322Z,21.07
2018-04-22T14:28:36.140Z,27.67
2018-04-22T14:31:06.098Z,17.80
2018-04-22T14:33:35.888Z,25.37
2018-04-22T14:36:06.510Z,18.10
2018-04-22T14:38:36.285Z,18.50
2018-04-22T14:41:06.123Z,21.47
2018-04-22T14:43:36.716Z,29.00
2018-04-22T14:46:15.518Z,22.43
2018-04-22T14:48:57.210Z,21.63
2018-04-22T14:51:28.048Z,21.03
2018-04-22T14:53:57.820Z,23.67
2018-04-22T14:56:27.760Z,18.98
2018-04-22T14:58:58.363Z,26.73
2018-04-22T15:01:28.379Z,19.67
2018-04-22T15:03:58.155Z,23.03
2018-04-22T15:06:28.100Z,19.80
2018-04-22T15:08:58.067Z,19.27
2018-04-22T15:11:28.380Z,24.70
2018-04-22T15:13:58.180Z,20.30
2018-04-22T15:16:29.139Z,19.60
2018-04-22T15:18:59.008Z,19.47
2018-04-22T15:21:29.071Z,22.13
2018-04-22T15:23:59.002Z,24.77
2018-04-22T15:26:28.917Z,19.10
2018-04-22T15:28:58.675Z,20.17
2018-04-22T15:31:28.438Z,25.40
2018-04-22T15:33:58.372Z,20.27
2018-04-22T15:36:28.186Z,27.03
2018-04-22T15:38:58.103Z,22.70
2018-04-22T15:41:28.208Z,21.47
2018-04-22T15:43:59.122Z,21.33
2018-04-22T15:46:29.993Z,30.27
2018-04-22T15:48:59.913Z,19.37
2018-04-22T15:51:30.012Z,20.43
2018-04-22T15:53:59.800Z,19.40
2018-04-22T15:56:30.356Z,21.70
2018-04-22T15:59:00.735Z,21.63
2018-04-22T16:01:30.511Z,23.03
2018-04-22T16:04:00.297Z,24.95
2018-04-22T16:06:30.095Z,18.83
2018-04-22T16:08:59.994Z,19.83
2018-04-22T16:11:30.940Z,19.60
2018-04-22T16:14:01.449Z,24.17
2018-04-22T16:16:31.183Z,19.87
2018-04-22T16:19:01.988Z,24.77
2018-04-22T16:21:31.866Z,19.57
2018-04-22T16:24:01.610Z,21.17
2018-04-22T16:26:31.489Z,24.87
2018-04-22T16:29:01.575Z,20.37
2018-04-22T16:31:33.185Z,21.13
2018-04-22T16:34:03.185Z,22.20
2018-04-22T16:36:34.290Z,19.73
2018-04-22T16:39:04.054Z,20.03
2018-04-22T16:41:33.941Z,19.13
2018-04-22T16:44:04.821Z,19.70
2018-04-22T16:46:34.553Z,18.47
2018-04-22T16:49:05.292Z,20.27
2018-04-22T16:51:36.982Z,22.37
2018-04-22T16:54:06.880Z,24.73
2018-04-22T16:56:36.623Z,16.63
2018-04-22T16:59:06.864Z,19.33
2018-04-22T17:01:39.100Z,16.13
2018-04-22T17:04:08.836Z,17.30
2018-04-22T17:06:38.617Z,13.77
2018-04-22T17:09:08.482Z,12.57
2018-04-22T17:11:39.138Z,16.87
2018-04-22T17:14:09.839Z,12.17
2018-04-22T17:16:39.750Z,15.87
2018-04-22T17:19:09.495Z,14.18
2018-04-22T17:21:40.625Z,16.02
2018-04-22T17:24:11.227Z,14.13
2018-04-22T17:26:41.864Z,12.57
2018-04-22T17:29:11.801Z,13.73
2018-04-22T17:31:42.320Z,13.67
2018-04-22T17:34:13.699Z,15.55
2018-04-22T17:36:43.432Z,14.80
2018-04-22T17:39:13.206Z,13.67
2018-04-22T17:41:43.723Z,19.10
2018-04-22T17:44:14.415Z,16.70
2018-04-22T17:46:44.268Z,15.82
2018-04-22T17:49:14.768Z,18.37
2018-04-22T17:51:44.579Z,16.24
2018-04-22T17:54:14.284Z,20.20
2018-04-22T17:56:44.609Z,18.93
2018-04-22T17:59:14.385Z,19.40
2018-04-22T18:01:44.291Z,16.83
2018-04-22T18:04:14.169Z,22.50
2018-04-22T18:06:44.071Z,13.77
2018-04-22T18:09:13.832Z,20.63
2018-04-22T18:11:44.245Z,19.13
2018-04-22T18:14:14.816Z,16.53
2018-04-22T18:16:44.712Z,24.73
2018-04-22T18:19:14.482Z,13.87
2018-04-22T18:21:44.969Z,15.07
2018-04-22T18:24:14.697Z,18.00
2018-04-22T18:26:44.672Z,13.33
2018-04-22T18:29:14.773Z,14.32
2018-04-22T18:31:45.307Z,17.42
2018-04-22T18:34:14.992Z,19.73
2018-04-22T18:36:45.659Z,18.77
2018-04-22T18:39:15.370Z,16.37
2018-04-22T18:41:45.936Z,18.90
2018-04-22T18:44:15.641Z,15.40
2018-04-22T18:46:45.523Z,14.32
2018-04-22T18:49:15.338Z,17.50
2018-04-22T18:51:45.220Z,15.30
2018-04-22T18:54:15.735Z,27.80
2018-04-22T18:56:45.515Z,17.43
2018-04-22T18:59:16.071Z,14.93
2018-04-22T19:01:45.829Z,15.77
2018-04-22T19:04:16.733Z,17.67
2018-04-22T19:06:48.154Z,15.60
2018-04-22T19:09:18.114Z,17.53
2018-04-22T19:11:54.285Z,18.80
2018-04-22T19:17:45.000Z,16.37
2018-04-22T19:20:14.767Z,20.90
2018-04-22T19:22:46.340Z,16.00
2018-04-22T19:25:16.089Z,14.27
2018-04-22T19:27:45.919Z,17.65
2018-04-22T19:30:16.133Z,17.90
2018-04-22T19:32:46.271Z,19.17
2018-04-22T19:35:16.166Z,15.90
2018-04-22T19:37:46.143Z,20.05
2018-04-22T19:40:16.070Z,21.13
2018-04-22T19:42:45.958Z,17.73
2018-04-22T19:45:16.590Z,21.90
2018-04-22T19:47:46.303Z,19.70
2018-04-22T19:50:16.221Z,18.53
2018-04-22T19:52:46.791Z,23.55
2018-04-22T19:55:16.762Z,18.03
2018-04-22T19:57:46.688Z,27.08
2018-04-22T20:00:16.793Z,30.40
2018-04-22T20:02:46.588Z,22.83
2018-04-22T20:05:17.234Z,22.40
2018-04-22T20:07:47.054Z,21.17
2018-04-22T20:10:17.036Z,18.53
2018-04-22T20:12:47.577Z,15.60
2018-04-22T20:15:18.263Z,18.30
2018-04-22T20:17:48.102Z,20.30
2018-04-22T20:20:17.824Z,24.13
2018-04-22T20:22:48.788Z,24.23
2018-04-22T20:25:19.345Z,21.67
2018-04-22T20:27:49.062Z,22.45
2018-04-22T20:30:19.099Z,22.77
2018-04-22T20:32:48.930Z,17.75
2018-04-22T20:35:18.872Z,20.33
2018-04-22T20:37:49.248Z,17.00
2018-04-22T20:40:19.223Z,20.20
2018-04-22T20:42:49.099Z,15.67
2018-04-22T20:45:19.043Z,20.55
2018-04-22T20:47:49.577Z,21.20
2018-04-22T20:50:19.425Z,22.30
2018-04-22T20:52:49.266Z,22.53
2018-04-22T20:55:18.955Z,17.73
2018-04-22T20:57:48.658Z,20.15
2018-04-22T21:00:18.525Z,17.17
2018-04-22T21:02:49.165Z,17.77
2018-04-22T21:05:18.880Z,22.80
2018-04-22T21:07:48.662Z,16.87
2018-04-22T21:10:20.293Z,19.73
2018-04-22T21:12:50.000Z,21.50
2018-04-22T21:15:19.745Z,17.33
2018-04-22T21:17:50.260Z,18.80
2018-04-22T21:20:20.152Z,26.03
2018-04-22T21:22:49.930Z,23.67
2018-04-22T21:25:19.679Z,17.80
2018-04-22T21:27:49.526Z,20.70
2018-04-22T21:30:20.135Z,21.13
2018-04-22T21:32:49.983Z,17.12
2018-04-22T21:35:19.884Z,23.10
2018-04-22T21:37:50.322Z,17.67
2018-04-22T21:40:20.099Z,17.57
2018-04-22T21:42:49.924Z,19.48
2018-04-22T21:45:21.027Z,25.05
2018-04-22T21:47:50.773Z,18.55
2018-04-22T21:50:20.471Z,21.90
2018-04-22T21:52:50.365Z,20.70
2018-04-22T21:55:21.036Z,23.20
2018-04-22T21:57:51.521Z,18.67
2018-04-22T22:00:21.306Z,21.20
2018-04-22T22:02:51.278Z,24.40
2018-04-22T22:05:21.052Z,23.93
2018-04-22T22:07:50.783Z,19.50
2018-04-22T22:10:21.423Z,30.52
2018-04-22T22:12:51.267Z,16.60
2018-04-22T22:15:21.980Z,18.95
2018-04-22T22:17:51.718Z,21.53
2018-04-22T22:20:22.441Z,17.70
2018-04-22T22:22:52.966Z,20.13
2018-04-22T22:25:23.472Z,29.40
2018-04-22T22:27:53.303Z,23.30
2018-04-22T22:30:24.003Z,18.80
2018-04-22T22:32:53.744Z,21.30
2018-04-22T22:35:24.238Z,23.70
2018-04-22T22:37:55.229Z,23.00
2018-04-22T22:40:24.967Z,28.50
2018-04-22T22:42:54.950Z,22.85
2018-04-22T22:45:25.581Z,24.53
2018-04-22T22:47:56.222Z,21.30
2018-04-22T22:50:25.970Z,23.80
2018-04-22T22:52:55.909Z,19.80
2018-04-22T22:55:25.657Z,20.70
2018-04-22T22:57:55.387Z,27.67
2018-04-22T23:00:25.098Z,18.13
2018-04-22T23:02:54.976Z,25.25
2018-04-22T23:05:25.825Z,20.57
2018-04-22T23:07:55.588Z,21.60
2018-04-22T23:10:25.308Z,26.27
2018-04-22T23:12:55.497Z,20.63
2018-04-22T23:15:25.222Z,21.27
2018-04-22T23:17:54.949Z,27.42
2018-04-22T23:20:24.803Z,22.80
2018-04-22T23:22:55.400Z,20.63
2018-04-22T23:25:25.178Z,26.13
2018-04-22T23:27:54.979Z,19.07
2018-04-22T23:30:24.876Z,18.77
2018-04-22T23:32:54.636Z,20.02
2018-04-22T23:35:24.867Z,22.03
2018-04-22T23:37:55.850Z,23.40
2018-04-22T23:40:25.602Z,21.47
2018-04-22T23:42:55.461Z,25.50
2018-04-22T23:45:26.941Z,19.40
2018-04-22T23:47:56.853Z,22.23
2018-04-22T23:50:26.729Z,25.55
2018-04-22T23:52:57.221Z,17.65
2018-04-22T23:55:27.063Z,20.77
2018-04-22T23:57:57.677Z,18.10
